Gloucester Point, Virginia
Current Conditions -  °F | °C
As of 4:54 PM on Wednesday 22 Oct 2014 (Local Time) from KPHF Reporting Station
Light Rain Light Rain  
Wind Chill: 57°   Ceiling: 1600
Heat Index: 57°   Visibility: 10mi
Dew Point: 52°   Wind: 17mph
Humidity: 83%   Direction: 320°NW
Pressure: 29.86"   Gusts: 23mph
Location:  37.26°N, 76.49°W
Report Text: KPHF 222054Z AUTO 32015G20KT 10SM -RA OVC016 14/11 A2986 RMK AO2 SLP110 P0001 60002 T01390111 51002 TSNO
Loading
Personal Weather Stations






























Interactive Weather Map
Tropical Storm Tracking
New forecast layout! Learn more

10-Day Weather Forecast

Advertisements
Track Severe Weather on mobile